createdAt,value
2018-04-29T00:01:13.570Z,33.20
2018-04-29T00:03:41.738Z,33.20
2018-04-29T00:06:09.869Z,33.10
2018-04-29T00:08:38.793Z,33.70
2018-04-29T00:11:06.971Z,33.60
2018-04-29T00:13:35.161Z,34.30
2018-04-29T00:16:03.321Z,34.60
2018-04-29T00:18:31.444Z,34.80
2018-04-29T00:21:00.348Z,35.30
2018-04-29T00:23:28.464Z,35.30
2018-04-29T00:25:56.594Z,35.60
2018-04-29T00:28:24.799Z,36.40
2018-04-29T00:30:52.962Z,36.70
2018-04-29T00:33:21.096Z,37.10
2018-04-29T00:35:49.251Z,36.30
2018-04-29T00:38:17.446Z,36.00
2018-04-29T00:40:46.378Z,36.00
2018-04-29T00:43:14.525Z,36.00
2018-04-29T00:45:42.665Z,36.50
2018-04-29T00:48:10.821Z,36.90
2018-04-29T00:50:38.979Z,38.30
2018-04-29T00:53:07.132Z,37.30
2018-04-29T00:55:35.268Z,37.90
2018-04-29T00:58:04.207Z,38.60
2018-04-29T01:00:32.477Z,38.50
2018-04-29T01:03:00.638Z,39.00
2018-04-29T01:05:28.821Z,39.00
2018-04-29T01:07:56.965Z,39.20
2018-04-29T01:10:25.680Z,39.90
2018-04-29T01:12:53.846Z,40.20
2018-04-29T01:15:22.017Z,40.10
2018-04-29T01:17:50.137Z,40.60
2018-04-29T01:20:18.501Z,41.30
2018-04-29T01:22:46.675Z,41.50
2018-04-29T01:25:14.835Z,41.70
2018-04-29T01:27:42.976Z,42.20
2018-04-29T01:30:11.097Z,43.40
2018-04-29T01:32:39.304Z,43.30
2018-04-29T01:35:07.468Z,43.30
2018-04-29T01:37:35.618Z,44.20
2018-04-29T01:40:03.829Z,45.10
2018-04-29T01:42:31.984Z,47.40
2018-04-29T01:45:00.904Z,46.80
2018-04-29T01:47:29.021Z,46.70
2018-04-29T01:49:57.174Z,47.20
2018-04-29T01:52:25.350Z,47.70
2018-04-29T01:54:53.489Z,48.20
2018-04-29T01:57:21.643Z,49.40
2018-04-29T01:59:49.805Z,49.50
2018-04-29T02:02:18.713Z,49.50
2018-04-29T02:04:46.829Z,49.50
2018-04-29T02:07:14.973Z,49.40
2018-04-29T02:09:43.130Z,49.00
2018-04-29T02:12:11.261Z,48.70
2018-04-29T02:14:39.420Z,48.20
2018-04-29T02:17:07.545Z,48.10
2018-04-29T02:19:35.924Z,48.10
2018-04-29T02:22:04.064Z,49.50
2018-04-29T02:24:32.190Z,49.50
2018-04-29T02:27:00.345Z,48.60
2018-04-29T02:29:28.491Z,50.00
2018-04-29T02:31:57.409Z,50.30
2018-04-29T02:34:25.567Z,50.20
2018-04-29T02:36:53.733Z,50.80
2018-04-29T02:39:22.686Z,52.10
2018-04-29T02:41:50.846Z,52.10
2018-04-29T02:44:19.001Z,52.90
2018-04-29T02:46:47.146Z,53.90
2018-04-29T02:49:15.268Z,55.30
2018-04-29T02:51:43.424Z,53.70
2018-04-29T02:54:11.710Z,52.90
2018-04-29T02:56:39.866Z,52.80
2018-04-29T02:59:07.995Z,53.10
2018-04-29T03:01:36.915Z,52.10
2018-04-29T03:04:05.282Z,52.00
2018-04-29T03:06:33.460Z,51.20
2018-04-29T03:09:01.588Z,50.90
2018-04-29T03:11:29.701Z,49.60
2018-04-29T03:13:57.841Z,50.90
2018-04-29T03:16:25.965Z,51.10
2018-04-29T03:18:54.120Z,50.80
2018-04-29T03:21:22.247Z,50.00
2018-04-29T03:23:50.402Z,49.50
2018-04-29T03:26:18.590Z,50.00
2018-04-29T03:28:46.833Z,51.20
2018-04-29T03:31:14.985Z,53.30
2018-04-29T03:33:43.121Z,53.90
2018-04-29T03:36:11.332Z,53.40
2018-04-29T03:38:39.489Z,53.40
2018-04-29T03:41:08.416Z,54.10
2018-04-29T03:43:36.605Z,54.10
2018-04-29T03:46:04.742Z,54.50
2018-04-29T03:48:32.876Z,55.20
2018-04-29T03:51:01.017Z,55.90
2018-04-29T03:53:29.140Z,55.80
2018-04-29T03:55:58.250Z,55.80
2018-04-29T03:58:44.271Z,55.70
2018-04-29T04:01:30.392Z,55.80
2018-04-29T04:03:59.429Z,55.80
2018-04-29T04:06:27.622Z,55.90
2018-04-29T04:08:55.773Z,57.80
2018-04-29T04:11:23.928Z,56.40
2018-04-29T04:13:52.816Z,56.00
2018-04-29T04:16:21.728Z,56.40
2018-04-29T04:18:49.862Z,56.40
2018-04-29T04:21:18.831Z,56.10
2018-04-29T04:23:47.087Z,56.10
2018-04-29T04:26:15.957Z,56.20
2018-04-29T04:28:44.090Z,56.10
2018-04-29T04:31:13.029Z,57.70
2018-04-29T04:33:41.183Z,56.40
2018-04-29T04:36:09.378Z,56.50
2018-04-29T04:38:37.552Z,57.40
2018-04-29T04:41:05.693Z,55.10
2018-04-29T04:43:34.605Z,54.40
2018-04-29T04:46:02.732Z,54.40
2018-04-29T04:48:30.904Z,53.80
2018-04-29T04:50:59.095Z,53.10
2018-04-29T04:53:27.996Z,53.50
2018-04-29T04:55:56.889Z,54.00
2018-04-29T04:58:25.078Z,54.00
2018-04-29T05:00:53.284Z,53.80
2018-04-29T05:03:21.447Z,54.10
2018-04-29T05:05:49.618Z,54.30
2018-04-29T05:08:17.772Z,54.40
2018-04-29T05:10:45.936Z,54.40
2018-04-29T05:13:14.110Z,54.50
2018-04-29T05:15:42.842Z,54.70
2018-04-29T05:18:10.996Z,54.10
2018-04-29T05:20:39.155Z,53.50
2018-04-29T05:23:07.309Z,53.60
2018-04-29T05:25:35.501Z,55.00
2018-04-29T05:28:03.658Z,55.20
2018-04-29T05:30:31.813Z,53.80
2018-04-29T05:33:00.762Z,49.00
2018-04-29T05:35:29.026Z,49.10
2018-04-29T05:37:57.092Z,47.80
2018-04-29T05:40:25.269Z,46.50
2018-04-29T05:42:53.422Z,44.80
2018-04-29T05:45:21.546Z,45.00
2018-04-29T05:47:49.789Z,45.10
2018-04-29T05:50:17.943Z,44.00
2018-04-29T05:52:46.068Z,43.10
2018-04-29T05:55:14.204Z,42.60
2018-04-29T05:57:42.354Z,42.30
2018-04-29T06:00:10.520Z,41.50
2018-04-29T06:02:38.687Z,40.70
2018-04-29T06:05:06.865Z,39.90
2018-04-29T06:07:35.016Z,39.30
2018-04-29T06:10:03.938Z,35.90
2018-04-29T06:12:32.958Z,35.90
2018-04-29T06:15:01.093Z,35.10
2018-04-29T06:17:29.242Z,34.90
2018-04-29T06:19:58.190Z,35.30
2018-04-29T06:22:26.366Z,35.10
2018-04-29T06:24:54.520Z,36.00
2018-04-29T06:27:22.671Z,35.10
2018-04-29T06:29:50.797Z,34.30
2018-04-29T06:32:18.917Z,34.10
2018-04-29T06:34:47.081Z,32.90
2018-04-29T06:37:25.402Z,31.90
2018-04-29T06:39:53.521Z,30.80
2018-04-29T06:42:21.658Z,30.20
2018-04-29T06:44:49.866Z,30.40
2018-04-29T06:47:18.822Z,29.80
2018-04-29T06:49:47.165Z,29.80
2018-04-29T06:52:15.371Z,29.50
2018-04-29T06:54:43.576Z,28.80
2018-04-29T06:57:11.740Z,28.30
2018-04-29T06:59:39.904Z,27.90
2018-04-29T07:02:08.072Z,27.60
2018-04-29T07:04:36.294Z,26.70
2018-04-29T07:07:04.524Z,26.20
2018-04-29T07:09:32.706Z,25.20
2018-04-29T07:12:01.397Z,26.20
2018-04-29T07:14:29.553Z,25.30
2018-04-29T07:16:57.766Z,25.40
2018-04-29T07:19:25.932Z,25.50
2018-04-29T07:21:54.075Z,25.70
2018-04-29T07:24:22.271Z,25.50
2018-04-29T07:26:50.501Z,24.70
2018-04-29T07:29:18.666Z,25.40
2018-04-29T07:31:47.083Z,24.30
2018-04-29T07:34:15.223Z,23.70
2018-04-29T07:36:43.405Z,22.90
2018-04-29T07:39:11.547Z,22.40
2018-04-29T07:41:40.442Z,21.60
2018-04-29T07:44:09.941Z,20.90
2018-04-29T07:46:38.852Z,20.80
2018-04-29T07:49:07.016Z,20.80
2018-04-29T07:51:35.240Z,21.10
2018-04-29T07:54:03.411Z,20.50
2018-04-29T07:56:31.586Z,21.00
2018-04-29T07:58:59.740Z,20.80
2018-04-29T08:01:27.873Z,20.00
2018-04-29T08:03:56.878Z,20.30
2018-04-29T08:06:25.074Z,20.20
2018-04-29T08:08:53.360Z,20.00
2018-04-29T08:11:21.713Z,19.30
2018-04-29T08:13:50.054Z,18.80
2018-04-29T08:16:19.521Z,18.10
2018-04-29T08:18:47.704Z,18.10
2018-04-29T08:21:15.875Z,18.30
2018-04-29T08:23:44.068Z,17.70
2018-04-29T08:26:12.279Z,17.20
2018-04-29T08:28:40.558Z,17.20
2018-04-29T08:31:08.752Z,17.20
2018-04-29T08:33:36.936Z,17.10
2018-04-29T08:36:05.133Z,17.50
2018-04-29T08:38:33.414Z,17.90
2018-04-29T08:41:01.787Z,17.50
2018-04-29T08:43:29.914Z,17.20
2018-04-29T08:45:58.042Z,17.50
2018-04-29T08:48:26.342Z,18.40
2018-04-29T08:50:54.506Z,19.70
2018-04-29T08:53:23.441Z,22.70
2018-04-29T08:55:51.605Z,22.70
2018-04-29T08:58:19.786Z,22.00
2018-04-29T09:00:47.916Z,21.80
2018-04-29T09:03:16.937Z,22.40
2018-04-29T09:05:45.065Z,22.40
2018-04-29T09:08:14.426Z,21.20
2018-04-29T09:10:42.618Z,21.20
2018-04-29T09:13:10.753Z,21.00
2018-04-29T09:15:40.401Z,20.70
2018-04-29T09:18:09.125Z,21.70
2018-04-29T09:20:38.050Z,19.20
2018-04-29T09:23:06.345Z,19.30
2018-04-29T09:25:34.501Z,19.40
2018-04-29T09:28:02.645Z,20.40
2018-04-29T09:30:30.827Z,21.00
2018-04-29T09:32:58.993Z,20.20
2018-04-29T09:35:27.252Z,20.00
2018-04-29T09:37:56.151Z,19.50
2018-04-29T09:40:24.342Z,19.50
2018-04-29T09:42:52.547Z,19.00
2018-04-29T09:45:20.972Z,19.00
2018-04-29T09:47:49.151Z,18.50
2018-04-29T09:50:17.317Z,17.90
2018-04-29T09:52:45.686Z,17.90
2018-04-29T09:55:14.620Z,16.90
2018-04-29T09:57:42.765Z,17.70
2018-04-29T10:00:10.885Z,16.90
2018-04-29T10:02:44.610Z,17.50
2018-04-29T10:05:13.530Z,17.20
2018-04-29T10:07:41.673Z,17.20
2018-04-29T10:10:09.844Z,17.20
2018-04-29T10:12:38.015Z,16.70
2018-04-29T10:15:06.178Z,17.20
2018-04-29T10:17:34.352Z,17.50
2018-04-29T10:20:02.543Z,16.40
2018-04-29T10:22:31.438Z,15.80
2018-04-29T10:25:00.343Z,15.10
2018-04-29T10:27:28.501Z,14.30
2018-04-29T10:29:57.522Z,14.30
2018-04-29T10:32:25.704Z,14.30
2018-04-29T10:34:53.841Z,13.80
2018-04-29T10:37:22.751Z,13.50
2018-04-29T10:39:50.882Z,13.60
2018-04-29T10:42:19.033Z,13.30
2018-04-29T10:44:47.167Z,12.50
2018-04-29T10:47:15.340Z,11.90
2018-04-29T10:49:43.553Z,11.50
2018-04-29T10:52:11.711Z,11.40
2018-04-29T10:54:39.906Z,10.20
2018-04-29T10:57:08.084Z,10.10
2018-04-29T10:59:36.233Z,10.20
2018-04-29T11:02:04.421Z,10.90
2018-04-29T11:04:32.618Z,10.10
2018-04-29T11:07:00.775Z,10.30
2018-04-29T11:09:28.927Z,10.50
2018-04-29T11:11:57.225Z,9.10
2018-04-29T11:14:25.434Z,9.50
2018-04-29T11:16:53.600Z,7.20
2018-04-29T11:19:22.485Z,8.60
2018-04-29T11:21:51.435Z,7.40
2018-04-29T11:24:19.615Z,7.30
2018-04-29T11:26:47.752Z,7.40
2018-04-29T11:29:15.953Z,6.60
2018-04-29T11:31:44.117Z,5.90
2018-04-29T11:34:12.301Z,5.40
2018-04-29T11:36:40.600Z,5.20
2018-04-29T11:39:08.766Z,4.10
2018-04-29T11:41:36.924Z,3.70
2018-04-29T11:44:05.061Z,2.00
2018-04-29T11:46:33.204Z,1.80
2018-04-29T11:49:02.183Z,1.20
2018-04-29T11:51:30.354Z,1.20
2018-04-29T11:53:58.581Z,1.50
2018-04-29T11:56:26.761Z,1.00
2018-04-29T11:58:54.934Z,1.00
2018-04-29T12:01:23.140Z,1.00
2018-04-29T12:03:51.330Z,1.00
2018-04-29T12:06:20.522Z,1.00
2018-04-29T12:08:48.760Z,1.00
2018-04-29T12:11:16.940Z,1.00
2018-04-29T12:13:45.103Z,1.00
2018-04-29T12:16:13.278Z,1.00
2018-04-29T12:18:41.456Z,1.00
2018-04-29T12:21:09.668Z,1.00
2018-04-29T12:23:38.596Z,1.00
2018-04-29T12:26:06.741Z,1.00
2018-04-29T12:28:35.778Z,1.00
2018-04-29T12:31:03.963Z,1.00
2018-04-29T12:33:32.195Z,1.00
2018-04-29T12:36:00.367Z,1.00
2018-04-29T12:38:28.560Z,1.00
2018-04-29T12:40:57.494Z,1.00
2018-04-29T12:43:25.646Z,1.00
2018-04-29T12:45:53.826Z,1.00
2018-04-29T12:48:22.002Z,1.00
2018-04-29T12:50:50.170Z,1.00
2018-04-29T12:53:18.386Z,1.00
2018-04-29T12:55:47.306Z,1.00
2018-04-29T12:58:15.431Z,1.00
2018-04-29T13:00:44.345Z,1.00
2018-04-29T13:03:13.245Z,1.00
2018-04-29T13:05:41.497Z,1.00
2018-04-29T13:08:09.613Z,1.00
2018-04-29T13:10:37.747Z,1.00
2018-04-29T13:13:06.641Z,1.00
2018-04-29T13:15:34.783Z,1.00
2018-04-29T13:18:02.945Z,1.00
2018-04-29T13:20:31.121Z,1.00
2018-04-29T13:22:59.281Z,1.00
2018-04-29T13:25:27.445Z,1.00
2018-04-29T13:27:55.640Z,1.00
2018-04-29T13:30:24.696Z,1.00
2018-04-29T13:32:53.101Z,1.00
2018-04-29T13:35:21.304Z,1.00
2018-04-29T13:37:50.423Z,1.00
2018-04-29T13:40:18.540Z,1.00
2018-04-29T13:42:47.641Z,1.00
2018-04-29T13:45:15.807Z,1.00
2018-04-29T13:47:43.961Z,1.00
2018-04-29T13:50:12.102Z,1.00
2018-04-29T13:52:40.272Z,1.00
2018-04-29T13:55:08.444Z,1.00
2018-04-29T13:57:37.323Z,1.00
2018-04-29T14:00:06.258Z,1.00
2018-04-29T14:02:34.399Z,1.00
2018-04-29T14:05:02.577Z,1.00
2018-04-29T14:07:30.769Z,1.00
2018-04-29T14:09:58.903Z,1.00
2018-04-29T14:12:27.802Z,1.00
2018-04-29T14:14:56.743Z,1.00
2018-04-29T14:17:24.906Z,1.00
2018-04-29T14:19:53.118Z,1.00
2018-04-29T14:22:21.315Z,1.00
2018-04-29T14:24:50.256Z,1.00
2018-04-29T14:27:18.414Z,1.00
2018-04-29T14:29:46.559Z,1.00
2018-04-29T14:32:15.378Z,1.00
2018-04-29T14:34:43.707Z,1.00
2018-04-29T14:37:11.881Z,1.00
2018-04-29T14:39:40.818Z,1.00
2018-04-29T14:42:09.017Z,1.00
2018-04-29T14:44:37.200Z,1.00
2018-04-29T14:47:06.638Z,1.00
2018-04-29T14:49:34.889Z,1.00
2018-04-29T14:52:03.063Z,1.00
2018-04-29T14:54:31.979Z,1.00
2018-04-29T14:57:00.135Z,1.00
2018-04-29T14:59:29.037Z,1.00
2018-04-29T15:01:57.202Z,1.00
2018-04-29T15:04:25.358Z,1.00
2018-04-29T15:06:53.505Z,1.00
2018-04-29T15:09:21.637Z,1.00
2018-04-29T15:11:49.843Z,1.00
2018-04-29T15:14:17.997Z,1.00
2018-04-29T15:16:46.141Z,1.00
2018-04-29T15:19:14.292Z,1.00
2018-04-29T15:21:43.341Z,1.00
2018-04-29T15:24:11.535Z,1.00
2018-04-29T15:26:39.644Z,1.00
2018-04-29T15:29:08.550Z,1.00
2018-04-29T15:31:36.705Z,1.00
2018-04-29T15:34:06.039Z,1.00
2018-04-29T15:36:34.149Z,1.00
2018-04-29T15:39:02.283Z,1.00
2018-04-29T15:41:30.445Z,1.00
2018-04-29T15:43:59.050Z,1.00
2018-04-29T15:46:27.195Z,1.00
2018-04-29T15:48:55.358Z,1.00
2018-04-29T15:51:23.566Z,1.00
2018-04-29T15:53:51.718Z,1.00
2018-04-29T15:56:19.864Z,1.00
2018-04-29T15:58:48.756Z,1.00
2018-04-29T16:01:17.637Z,1.00
2018-04-29T16:03:46.558Z,1.00
2018-04-29T16:06:14.669Z,1.00
2018-04-29T16:08:42.793Z,1.00
2018-04-29T16:11:11.207Z,1.00
2018-04-29T16:13:39.370Z,1.00
2018-04-29T16:16:07.992Z,1.00
2018-04-29T16:18:36.237Z,1.00
2018-04-29T16:21:04.385Z,1.00
2018-04-29T16:23:32.508Z,1.00
2018-04-29T16:26:00.734Z,1.00
2018-04-29T16:28:28.890Z,1.00
2018-04-29T16:30:57.058Z,1.00
2018-04-29T16:33:25.994Z,1.00
2018-04-29T16:35:54.129Z,1.00
2018-04-29T16:38:22.330Z,1.00
2018-04-29T16:40:50.469Z,1.00
2018-04-29T16:43:19.349Z,1.00
2018-04-29T16:45:48.244Z,1.00
2018-04-29T16:48:17.214Z,1.00
2018-04-29T16:50:45.574Z,1.00
2018-04-29T16:53:13.821Z,1.00
2018-04-29T16:55:42.112Z,1.00
2018-04-29T16:58:10.245Z,1.00
2018-04-29T17:00:38.454Z,1.00
2018-04-29T17:03:06.636Z,1.00
2018-04-29T17:05:34.785Z,1.00
2018-04-29T17:08:02.933Z,1.00
2018-04-29T17:10:31.090Z,2.40
2018-04-29T17:13:00.026Z,4.20
2018-04-29T17:15:28.139Z,4.10
2018-04-29T17:17:57.251Z,5.10
2018-04-29T17:20:26.201Z,7.20
2018-04-29T17:22:54.349Z,7.20
2018-04-29T17:25:22.468Z,8.50
2018-04-29T17:27:50.637Z,9.40
2018-04-29T17:30:18.785Z,9.40
2018-04-29T17:32:46.943Z,9.00
2018-04-29T17:35:15.118Z,8.60
2018-04-29T17:37:43.236Z,8.40
2018-04-29T17:40:11.474Z,8.70
2018-04-29T17:42:39.622Z,9.70
2018-04-29T17:45:07.766Z,9.20
2018-04-29T17:47:36.676Z,10.00
2018-04-29T17:50:04.826Z,10.00
2018-04-29T17:52:33.847Z,12.20
2018-04-29T17:55:01.969Z,12.10
2018-04-29T17:57:30.169Z,12.90
2018-04-29T17:59:59.072Z,14.80
2018-04-29T18:02:27.375Z,14.70
2018-04-29T18:04:55.510Z,16.20
2018-04-29T18:07:24.440Z,17.20
2018-04-29T18:09:52.577Z,17.20
2018-04-29T18:12:21.626Z,17.60
2018-04-29T18:14:49.810Z,18.40
2018-04-29T18:17:18.092Z,18.20
2018-04-29T18:19:46.255Z,18.60
2018-04-29T18:22:14.425Z,19.10
2018-04-29T18:24:42.549Z,19.50
2018-04-29T18:27:10.698Z,20.00
2018-04-29T18:29:39.748Z,21.00
2018-04-29T18:32:07.892Z,20.90
2018-04-29T18:34:36.029Z,21.60
2018-04-29T18:37:04.265Z,22.20
2018-04-29T18:39:32.577Z,23.90
2018-04-29T18:42:01.579Z,23.90
2018-04-29T18:44:30.510Z,24.10
2018-04-29T18:46:58.636Z,24.10
2018-04-29T18:49:27.540Z,25.90
2018-04-29T18:51:56.854Z,25.20
2018-04-29T18:54:24.996Z,25.10
2018-04-29T18:56:53.909Z,25.00
2018-04-29T18:59:22.029Z,25.10
2018-04-29T19:01:50.158Z,25.20
2018-04-29T19:04:18.314Z,25.80
2018-04-29T19:06:47.200Z,26.70
2018-04-29T19:09:16.117Z,27.00
2018-04-29T19:11:44.393Z,27.00
2018-04-29T19:14:12.596Z,27.20
2018-04-29T19:16:40.720Z,27.40
2018-04-29T19:19:09.674Z,27.80
2018-04-29T19:21:37.956Z,27.80
2018-04-29T19:24:06.190Z,28.30
2018-04-29T19:26:35.313Z,28.60
2018-04-29T19:29:03.480Z,30.00
2018-04-29T19:31:31.685Z,29.50
2018-04-29T19:33:59.805Z,29.90
2018-04-29T19:36:27.986Z,30.10
2018-04-29T19:38:56.138Z,30.20
2018-04-29T19:41:24.265Z,30.60
2018-04-29T19:43:52.528Z,31.00
2018-04-29T19:46:21.380Z,31.40
2018-04-29T19:48:49.530Z,31.40
2018-04-29T19:51:17.728Z,31.70
2018-04-29T19:53:45.878Z,31.70
2018-04-29T19:56:14.008Z,32.10
2018-04-29T19:58:42.186Z,32.20
2018-04-29T20:01:10.408Z,32.90
2018-04-29T20:03:38.647Z,32.50
2018-04-29T20:06:06.697Z,32.90
2018-04-29T20:08:34.832Z,33.10
2018-04-29T20:11:02.981Z,33.20
2018-04-29T20:13:32.073Z,33.60
2018-04-29T20:16:00.958Z,34.00
2018-04-29T20:18:29.954Z,34.20
2018-04-29T20:20:58.088Z,34.20
2018-04-29T20:23:26.355Z,34.40
2018-04-29T20:25:54.497Z,34.60
2018-04-29T20:28:22.657Z,34.60
2018-04-29T20:30:50.792Z,34.60
2018-04-29T20:33:18.927Z,34.60
2018-04-29T20:35:47.113Z,34.50
2018-04-29T20:38:15.241Z,34.50
2018-04-29T20:40:44.377Z,34.40
2018-04-29T20:43:12.511Z,34.50
2018-04-29T20:45:41.446Z,35.00
2018-04-29T20:48:09.642Z,35.00
2018-04-29T20:50:37.871Z,35.30
2018-04-29T20:53:06.044Z,35.70
2018-04-29T20:55:34.323Z,35.80
2018-04-29T20:58:02.522Z,35.60
2018-04-29T21:00:30.772Z,35.70
2018-04-29T21:02:58.924Z,36.10
2018-04-29T21:05:27.040Z,36.00
2018-04-29T21:07:55.177Z,36.30
2018-04-29T21:10:23.344Z,36.30
2018-04-29T21:12:51.486Z,36.50
2018-04-29T21:15:20.413Z,36.50
2018-04-29T21:17:48.570Z,36.50
2018-04-29T21:20:16.774Z,36.70
2018-04-29T21:22:44.935Z,36.80
2018-04-29T21:25:13.085Z,36.80
2018-04-29T21:27:42.009Z,36.60
2018-04-29T21:30:10.153Z,36.60
2018-04-29T21:32:38.297Z,36.60
2018-04-29T21:35:06.440Z,36.50
2018-04-29T21:37:35.117Z,36.50
2018-04-29T21:40:03.241Z,36.70
2018-04-29T21:42:32.128Z,37.00
2018-04-29T21:45:01.064Z,36.90
2018-04-29T21:47:29.171Z,36.90
2018-04-29T21:49:57.322Z,37.10
2018-04-29T21:52:26.065Z,37.10
2018-04-29T21:54:54.181Z,37.20
2018-04-29T21:57:22.353Z,37.40
2018-04-29T21:59:50.484Z,37.70
2018-04-29T22:02:18.642Z,37.70
2018-04-29T22:04:46.779Z,37.70
2018-04-29T22:07:14.922Z,37.70
2018-04-29T22:09:43.106Z,38.00
2018-04-29T22:12:11.258Z,38.40
2018-04-29T22:14:39.389Z,38.50
2018-04-29T22:17:07.564Z,38.50
2018-04-29T22:19:35.688Z,38.60
2018-04-29T22:22:03.841Z,38.90
2018-04-29T22:24:31.976Z,39.90
2018-04-29T22:27:00.123Z,38.80
2018-04-29T22:29:28.282Z,40.00
2018-04-29T22:31:56.436Z,39.30
2018-04-29T22:34:24.632Z,39.40
2018-04-29T22:36:52.802Z,39.60
2018-04-29T22:39:20.978Z,39.70
2018-04-29T22:41:49.924Z,39.90
2018-04-29T22:44:18.866Z,40.30
2018-04-29T22:46:47.049Z,40.30
2018-04-29T22:49:15.211Z,40.40
2018-04-29T22:51:43.336Z,40.70
2018-04-29T22:54:11.452Z,41.30
2018-04-29T22:56:39.581Z,41.60
2018-04-29T22:59:07.725Z,41.90
2018-04-29T23:01:35.898Z,41.90
2018-04-29T23:04:04.191Z,41.80
2018-04-29T23:06:32.280Z,42.30
2018-04-29T23:09:00.395Z,42.30
2018-04-29T23:11:28.981Z,42.40
2018-04-29T23:13:57.126Z,42.70
2018-04-29T23:16:25.258Z,42.70
2018-04-29T23:18:54.316Z,43.20
2018-04-29T23:21:22.794Z,43.20
2018-04-29T23:23:50.941Z,43.30
2018-04-29T23:26:19.064Z,43.40
2018-04-29T23:28:47.174Z,43.90
2018-04-29T23:31:15.338Z,44.00
2018-04-29T23:33:43.460Z,45.00
2018-04-29T23:36:11.609Z,45.30
2018-04-29T23:38:39.752Z,45.30
2018-04-29T23:41:07.920Z,45.30
2018-04-29T23:43:36.125Z,45.30
2018-04-29T23:46:04.261Z,45.30
2018-04-29T23:48:33.141Z,45.30
2018-04-29T23:51:02.051Z,45.20
2018-04-29T23:53:30.197Z,45.30
2018-04-29T23:55:58.311Z,45.20
2018-04-29T23:58:26.471Z,45.20
